createdAt,value
2023-03-21T00:00:40.492Z,8.30
2023-03-21T00:03:07.435Z,8.30
2023-03-21T00:05:34.215Z,8.30
2023-03-21T00:08:02.554Z,8.30
2023-03-21T00:13:16.213Z,8.30
2023-03-21T00:16:05.965Z,8.30
2023-03-21T00:18:36.879Z,8.30
2023-03-21T00:23:52.249Z,8.30
2023-03-21T00:26:18.842Z,8.30
2023-03-21T00:28:45.873Z,8.30
2023-03-21T00:31:12.428Z,8.30
2023-03-21T00:33:39.342Z,8.30
2023-03-21T00:36:07.596Z,8.30
2023-03-21T00:38:35.219Z,8.30
2023-03-21T00:41:17.666Z,8.30
2023-03-21T00:43:51.824Z,8.30
2023-03-21T00:46:18.695Z,8.30
2023-03-21T00:48:45.441Z,8.30
2023-03-21T00:51:15.619Z,8.30
2023-03-21T00:53:42.691Z,8.30
2023-03-21T00:56:09.411Z,8.30
2023-03-21T00:58:36.011Z,8.30
2023-03-21T01:01:02.708Z,8.30
2023-03-21T01:03:29.308Z,8.30
2023-03-21T01:06:07.864Z,8.30
2023-03-21T01:08:51.637Z,8.30
2023-03-21T01:11:22.467Z,8.30
2023-03-21T01:14:07.320Z,8.40
2023-03-21T01:16:36.130Z,8.30
2023-03-21T01:19:06.910Z,8.30
2023-03-21T01:21:34.558Z,8.30
2023-03-21T01:24:01.658Z,8.40
2023-03-21T01:26:28.772Z,8.30
2023-03-21T01:28:55.379Z,8.30
2023-03-21T01:31:22.199Z,8.40
2023-03-21T01:33:48.838Z,8.40
2023-03-21T01:36:24.895Z,8.40
2023-03-21T01:38:52.450Z,8.40
2023-03-21T01:41:33.589Z,8.40
2023-03-21T01:44:09.987Z,8.40
2023-03-21T01:46:47.820Z,8.40
2023-03-21T01:49:27.054Z,8.40
2023-03-21T01:52:01.102Z,8.40
2023-03-21T01:54:33.848Z,8.40
2023-03-21T01:57:04.863Z,8.40
2023-03-21T01:59:45.129Z,8.40
2023-03-21T02:02:17.792Z,8.40
2023-03-21T02:04:51.181Z,8.40
2023-03-21T02:07:28.807Z,8.40
2023-03-21T02:09:56.290Z,8.40
2023-03-21T02:12:23.449Z,8.50
2023-03-21T02:14:51.543Z,8.40
2023-03-21T02:17:53.036Z,8.50
2023-03-21T02:20:55.285Z,8.50
2023-03-21T02:23:24.616Z,8.50
2023-03-21T02:26:21.224Z,8.50
2023-03-21T02:28:59.989Z,8.50
2023-03-21T02:31:38.588Z,8.50
2023-03-21T02:34:32.664Z,8.50
2023-03-21T02:37:28.875Z,8.50
2023-03-21T02:40:11.060Z,8.50
2023-03-21T02:42:54.803Z,8.50
2023-03-21T02:45:30.451Z,8.50
2023-03-21T02:48:04.449Z,8.50
2023-03-21T02:50:51.416Z,8.60
2023-03-21T02:53:21.560Z,8.50
2023-03-21T02:55:49.455Z,8.50
2023-03-21T02:58:20.296Z,8.50
2023-03-21T03:00:48.491Z,8.50
2023-03-21T03:03:27.964Z,8.50
2023-03-21T03:06:01.981Z,8.60
2023-03-21T03:08:45.071Z,8.50
2023-03-21T03:11:31.373Z,8.50
2023-03-21T03:14:31.574Z,8.50
2023-03-21T03:17:11.474Z,8.50
2023-03-21T03:20:07.233Z,8.60
2023-03-21T03:23:18.822Z,8.60
2023-03-21T03:25:56.379Z,8.60
2023-03-21T03:28:27.266Z,8.60
2023-03-21T03:31:08.168Z,8.60
2023-03-21T03:33:40.650Z,8.60
2023-03-21T03:36:21.482Z,8.60
2023-03-21T03:38:57.280Z,8.60
2023-03-21T03:41:29.377Z,8.60
2023-03-21T03:43:59.570Z,8.60
2023-03-21T03:46:34.773Z,8.60
2023-03-21T03:49:19.649Z,8.60
2023-03-21T03:51:52.839Z,8.60
2023-03-21T03:54:24.412Z,8.60
2023-03-21T03:56:51.184Z,8.60
2023-03-21T03:59:24.964Z,8.60
2023-03-21T04:01:52.213Z,8.60
2023-03-21T04:04:22.653Z,8.60
2023-03-21T04:06:51.556Z,8.60
2023-03-21T04:09:22.102Z,8.60
2023-03-21T04:11:51.692Z,8.60
2023-03-21T04:14:18.313Z,8.70
2023-03-21T04:16:44.877Z,8.70
2023-03-21T04:19:11.443Z,8.70
2023-03-21T04:21:38.555Z,8.70
2023-03-21T04:24:07.276Z,8.70
2023-03-21T04:26:35.784Z,8.70
2023-03-21T04:29:05.757Z,8.70
2023-03-21T04:31:34.239Z,8.70
2023-03-21T04:34:03.377Z,8.80
2023-03-21T04:36:38.887Z,8.70
2023-03-21T04:39:12.030Z,8.70
2023-03-21T04:41:40.656Z,8.70
2023-03-21T04:44:07.556Z,8.80
2023-03-21T04:46:35.138Z,8.80
2023-03-21T04:49:01.928Z,8.80
2023-03-21T04:51:28.547Z,8.80
2023-03-21T04:53:58.056Z,8.80
2023-03-21T04:56:33.635Z,8.80
2023-03-21T04:59:03.826Z,8.80
2023-03-21T05:01:30.739Z,8.80
2023-03-21T05:04:01.836Z,8.80
2023-03-21T05:06:29.611Z,8.80
2023-03-21T05:09:00.173Z,8.80
2023-03-21T05:11:28.067Z,8.80
2023-03-21T05:13:54.643Z,8.80
2023-03-21T05:16:25.337Z,8.80
2023-03-21T05:18:53.502Z,8.80
2023-03-21T05:21:20.691Z,8.80
2023-03-21T05:23:53.999Z,8.80
2023-03-21T05:26:22.166Z,8.90
2023-03-21T05:28:49.962Z,8.90
2023-03-21T05:31:18.411Z,8.80
2023-03-21T05:33:45.798Z,8.90
2023-03-21T05:36:12.942Z,8.90
2023-03-21T05:38:42.745Z,8.90
2023-03-21T05:41:09.346Z,8.90
2023-03-21T05:43:35.903Z,8.90
2023-03-21T05:46:02.586Z,8.90
2023-03-21T05:48:29.197Z,8.90
2023-03-21T05:50:55.989Z,8.90
2023-03-21T05:53:23.305Z,8.90
2023-03-21T05:55:50.073Z,8.90
2023-03-21T05:58:16.615Z,8.90
2023-03-21T06:00:43.290Z,8.90
2023-03-21T06:03:09.885Z,9.00
2023-03-21T06:05:36.887Z,9.00
2023-03-21T06:08:03.934Z,9.00
2023-03-21T06:10:30.650Z,9.00
2023-03-21T06:12:57.214Z,9.00
2023-03-21T06:15:24.179Z,9.00
2023-03-21T06:17:50.784Z,9.00
2023-03-21T06:20:17.487Z,9.00
2023-03-21T06:22:44.333Z,9.00
2023-03-21T06:25:11.260Z,9.00
2023-03-21T06:27:37.935Z,9.10
2023-03-21T06:30:05.775Z,9.10
2023-03-21T06:32:32.724Z,9.10
2023-03-21T06:34:59.303Z,9.10
2023-03-21T06:37:28.871Z,9.10
2023-03-21T06:39:55.816Z,9.20
2023-03-21T06:42:22.407Z,9.10
2023-03-21T06:44:48.968Z,9.10
2023-03-21T06:47:16.177Z,9.20
2023-03-21T06:49:43.747Z,9.20
2023-03-21T06:52:11.023Z,9.20
2023-03-21T06:54:38.047Z,9.20
2023-03-21T06:57:05.830Z,9.20
2023-03-21T06:59:32.424Z,9.20
2023-03-21T07:01:59.154Z,9.20
2023-03-21T07:04:26.925Z,9.20
2023-03-21T07:06:53.572Z,9.20
2023-03-21T07:09:24.355Z,9.20
2023-03-21T07:11:53.353Z,9.20
2023-03-21T07:14:20.070Z,9.30
2023-03-21T07:16:46.876Z,9.30
2023-03-21T07:19:14.004Z,9.30
2023-03-21T07:21:40.551Z,9.30
2023-03-21T07:24:07.311Z,9.40
2023-03-21T07:26:33.864Z,9.40
2023-03-21T07:29:00.473Z,9.40
2023-03-21T07:31:27.143Z,9.40
2023-03-21T07:33:53.879Z,9.40
2023-03-21T07:36:21.256Z,9.40
2023-03-21T07:38:47.843Z,9.40
2023-03-21T07:43:46.130Z,9.40
2023-03-21T07:46:12.868Z,9.50
2023-03-21T07:48:39.484Z,9.50
2023-03-21T07:51:06.452Z,9.60
2023-03-21T07:53:33.311Z,9.60
2023-03-21T07:55:59.952Z,9.60
2023-03-21T07:58:27.176Z,9.60
2023-03-21T08:00:53.945Z,9.70
2023-03-21T08:03:21.166Z,9.70
2023-03-21T08:05:47.835Z,9.70
2023-03-21T08:08:14.775Z,9.70
2023-03-21T08:10:43.617Z,9.80
2023-03-21T08:13:10.241Z,9.70
2023-03-21T08:15:37.673Z,9.80
2023-03-21T08:18:04.471Z,9.80
2023-03-21T08:20:31.139Z,9.80
2023-03-21T08:22:57.921Z,9.80
2023-03-21T08:25:24.551Z,9.90
2023-03-21T08:27:51.823Z,9.90
2023-03-21T08:30:23.685Z,9.90
2023-03-21T08:32:50.345Z,9.90
2023-03-21T08:35:18.945Z,9.90
2023-03-21T08:37:45.946Z,10.00
2023-03-21T08:40:15.945Z,10.00
2023-03-21T08:42:43.253Z,10.00
2023-03-21T08:45:11.392Z,10.00
2023-03-21T08:47:38.387Z,10.00
2023-03-21T08:50:07.283Z,10.00
2023-03-21T08:52:33.974Z,9.90
2023-03-21T08:55:02.035Z,9.90
2023-03-21T08:57:29.575Z,9.90
2023-03-21T08:59:56.328Z,9.90
2023-03-21T09:02:23.052Z,9.90
2023-03-21T09:04:49.692Z,9.90
2023-03-21T09:07:17.922Z,9.90
2023-03-21T09:09:45.946Z,9.90
2023-03-21T09:12:14.368Z,9.90
2023-03-21T09:14:41.203Z,9.90
2023-03-21T09:17:07.855Z,9.90
2023-03-21T09:19:34.972Z,10.00
2023-03-21T09:22:03.378Z,10.00
2023-03-21T09:24:30.562Z,10.00
2023-03-21T09:26:57.704Z,10.10
2023-03-21T09:29:24.894Z,10.10
2023-03-21T09:31:53.357Z,10.20
2023-03-21T09:34:19.952Z,10.30
2023-03-21T09:36:48.188Z,10.30
2023-03-21T09:39:16.169Z,10.20
2023-03-21T09:41:51.956Z,10.20
2023-03-21T09:44:56.091Z,10.20
2023-03-21T09:47:34.672Z,10.20
2023-03-21T09:50:17.235Z,10.10
2023-03-21T09:53:09.841Z,10.10
2023-03-21T09:55:39.555Z,10.10
2023-03-21T09:58:27.598Z,10.20
2023-03-21T10:01:02.640Z,10.20
2023-03-21T10:03:37.336Z,10.30
2023-03-21T10:06:11.369Z,10.30
2023-03-21T10:08:41.488Z,10.30
2023-03-21T10:11:13.384Z,10.30
2023-03-21T10:13:44.580Z,10.40
2023-03-21T10:16:16.539Z,10.40
2023-03-21T10:18:44.732Z,10.40
2023-03-21T10:21:37.235Z,10.30
2023-03-21T10:24:04.683Z,10.30
2023-03-21T10:26:31.272Z,10.20
2023-03-21T10:29:01.201Z,10.20
2023-03-21T10:31:30.284Z,10.10
2023-03-21T10:34:02.482Z,10.10
2023-03-21T10:36:31.943Z,10.20
2023-03-21T10:39:06.769Z,10.30
2023-03-21T10:41:34.009Z,10.40
2023-03-21T10:44:06.878Z,10.50
2023-03-21T10:46:36.252Z,10.40
2023-03-21T10:49:03.709Z,10.50
2023-03-21T10:51:36.998Z,10.60
2023-03-21T10:54:13.675Z,10.80
2023-03-21T10:56:48.084Z,10.90
2023-03-21T10:59:20.572Z,11.00
2023-03-21T11:01:51.755Z,11.00
2023-03-21T11:04:22.431Z,11.00
2023-03-21T11:07:03.149Z,11.00
2023-03-21T11:09:56.250Z,11.00
2023-03-21T11:12:37.955Z,11.00
2023-03-21T11:15:42.171Z,11.00
2023-03-21T11:18:22.032Z,11.00
2023-03-21T11:21:03.547Z,11.10
2023-03-21T11:23:33.173Z,11.00
2023-03-21T11:26:02.030Z,10.90
2023-03-21T11:28:40.320Z,10.90
2023-03-21T11:31:09.311Z,10.90
2023-03-21T11:33:57.221Z,10.90
2023-03-21T11:36:23.966Z,11.00
2023-03-21T11:38:52.878Z,11.00
2023-03-21T11:41:40.493Z,11.00
2023-03-21T11:44:23.067Z,11.00
2023-03-21T11:46:49.617Z,11.10
2023-03-21T11:49:16.283Z,11.10
2023-03-21T11:51:51.820Z,11.00
2023-03-21T11:54:35.789Z,11.00
2023-03-21T11:57:32.399Z,10.90
2023-03-21T12:00:23.677Z,10.80
2023-03-21T12:03:21.927Z,10.80
2023-03-21T12:05:54.790Z,10.70
2023-03-21T12:09:07.002Z,10.60
2023-03-21T12:11:39.783Z,10.70
2023-03-21T12:14:19.144Z,10.70
2023-03-21T12:17:01.688Z,10.60
2023-03-21T12:19:51.750Z,10.50
2023-03-21T12:22:39.380Z,10.50
2023-03-21T12:25:18.105Z,10.50
2023-03-21T12:28:32.060Z,10.40
2023-03-21T12:31:21.566Z,10.30
2023-03-21T12:34:19.972Z,10.30
2023-03-21T12:37:08.051Z,10.30
2023-03-21T12:39:38.048Z,10.30
2023-03-21T12:42:13.341Z,10.30
2023-03-21T12:44:45.325Z,10.30
2023-03-21T12:47:23.978Z,10.40
2023-03-21T12:50:00.195Z,10.50
2023-03-21T12:52:40.610Z,10.50
2023-03-21T12:55:25.026Z,10.40
2023-03-21T12:58:05.706Z,10.40
2023-03-21T13:00:38.137Z,10.40
2023-03-21T13:03:20.922Z,10.50
2023-03-21T13:05:58.126Z,10.60
2023-03-21T13:08:31.163Z,10.60
2023-03-21T13:11:01.203Z,10.50
2023-03-21T13:13:54.616Z,10.50
2023-03-21T13:16:30.639Z,10.50
2023-03-21T13:19:09.296Z,10.50
2023-03-21T13:21:44.689Z,10.60
2023-03-21T13:24:38.356Z,10.60
2023-03-21T13:27:24.619Z,10.60
2023-03-21T13:29:54.063Z,10.60
2023-03-21T13:32:29.272Z,10.70
2023-03-21T13:35:13.514Z,10.70
2023-03-21T13:37:48.568Z,10.80
2023-03-21T13:40:39.008Z,10.90
2023-03-21T13:43:27.382Z,11.10
2023-03-21T13:45:54.465Z,11.20
2023-03-21T13:48:43.944Z,11.30
2023-03-21T13:51:13.251Z,11.30
2023-03-21T13:53:44.263Z,11.30
2023-03-21T13:56:17.045Z,11.30
2023-03-21T13:58:43.548Z,11.20
2023-03-21T14:01:59.302Z,11.20
2023-03-21T14:04:42.071Z,11.10
2023-03-21T14:07:26.383Z,11.10
2023-03-21T14:09:57.592Z,11.10
2023-03-21T14:12:27.298Z,11.10
2023-03-21T14:15:06.739Z,11.20
2023-03-21T14:17:37.017Z,11.20
2023-03-21T14:20:27.476Z,11.20
2023-03-21T14:22:54.911Z,11.20
2023-03-21T14:25:27.223Z,11.10
2023-03-21T14:27:59.950Z,11.10
2023-03-21T14:30:36.269Z,11.10
2023-03-21T14:33:19.939Z,11.10
2023-03-21T14:35:48.639Z,11.10
2023-03-21T14:38:22.229Z,11.10
2023-03-21T14:40:51.546Z,11.10
2023-03-21T14:43:23.088Z,11.00
2023-03-21T14:45:56.233Z,11.00
2023-03-21T14:48:35.588Z,11.00
2023-03-21T14:51:08.042Z,11.00
2023-03-21T14:53:40.724Z,11.00
2023-03-21T14:56:17.536Z,11.00
2023-03-21T14:58:46.511Z,11.00
2023-03-21T15:01:32.493Z,11.00
2023-03-21T15:04:01.281Z,10.90
2023-03-21T15:06:27.899Z,10.90
2023-03-21T15:09:00.286Z,10.80
2023-03-21T15:11:33.064Z,10.90
2023-03-21T15:14:02.979Z,10.90
2023-03-21T15:16:31.158Z,11.00
2023-03-21T15:18:59.321Z,11.00
2023-03-21T15:21:30.249Z,11.10
2023-03-21T15:24:03.206Z,11.20
2023-03-21T15:26:31.799Z,11.30
2023-03-21T15:29:00.244Z,11.30
2023-03-21T15:31:34.465Z,11.40
2023-03-21T15:34:02.879Z,11.40
2023-03-21T15:36:35.447Z,11.40
2023-03-21T15:39:05.506Z,11.30
2023-03-21T15:41:33.101Z,11.30
2023-03-21T15:43:59.624Z,11.30
2023-03-21T15:46:33.679Z,11.30
2023-03-21T15:49:27.463Z,11.30
2023-03-21T15:52:02.231Z,11.40
2023-03-21T15:54:36.988Z,11.40
2023-03-21T15:57:19.760Z,11.40
2023-03-21T15:59:47.711Z,11.50
2023-03-21T16:02:21.098Z,11.60
2023-03-21T16:05:23.763Z,11.60
2023-03-21T16:07:51.011Z,11.60
2023-03-21T16:10:44.014Z,11.50
2023-03-21T16:13:13.645Z,11.50
2023-03-21T16:15:40.472Z,11.50
2023-03-21T16:18:10.245Z,11.60
2023-03-21T16:20:45.075Z,11.70
2023-03-21T16:23:13.514Z,11.80
2023-03-21T16:25:42.463Z,11.70
2023-03-21T16:28:17.044Z,11.70
2023-03-21T16:30:44.642Z,11.60
2023-03-21T16:33:12.324Z,11.70
2023-03-21T16:35:39.058Z,11.60
2023-03-21T16:38:05.853Z,11.60
2023-03-21T16:40:39.366Z,11.60
2023-03-21T16:43:06.817Z,11.60
2023-03-21T16:45:33.589Z,11.60
2023-03-21T16:48:00.553Z,11.60
2023-03-21T16:50:31.590Z,11.60
2023-03-21T16:52:58.704Z,11.50
2023-03-21T16:55:25.875Z,11.50
2023-03-21T16:57:53.463Z,11.50
2023-03-21T17:00:24.275Z,11.50
2023-03-21T17:02:53.322Z,11.50
2023-03-21T17:05:26.090Z,11.50
2023-03-21T17:07:54.757Z,11.40
2023-03-21T17:10:26.497Z,11.40
2023-03-21T17:12:53.528Z,11.40
2023-03-21T17:15:21.177Z,11.40
2023-03-21T17:17:51.943Z,11.40
2023-03-21T17:20:41.432Z,11.30
2023-03-21T17:23:08.434Z,11.30
2023-03-21T17:25:35.184Z,11.30
2023-03-21T17:28:01.857Z,11.30
2023-03-21T17:30:34.154Z,11.30
2023-03-21T17:33:00.967Z,11.30
2023-03-21T17:35:28.342Z,11.30
2023-03-21T17:37:58.100Z,11.30
2023-03-21T17:40:28.132Z,11.20
2023-03-21T17:42:55.871Z,11.20
2023-03-21T17:45:22.979Z,11.20
2023-03-21T17:47:50.620Z,11.10
2023-03-21T17:50:18.897Z,11.10
2023-03-21T17:52:46.221Z,11.10
2023-03-21T17:55:14.640Z,11.10
2023-03-21T17:57:41.229Z,11.10
2023-03-21T18:00:13.805Z,11.10
2023-03-21T18:02:40.448Z,11.10
2023-03-21T18:05:08.459Z,11.00
2023-03-21T18:08:08.148Z,11.00
2023-03-21T18:10:26.875Z,11.00
2023-03-21T18:12:55.969Z,11.10
2023-03-21T18:15:24.155Z,11.10
2023-03-21T18:17:50.943Z,11.10
2023-03-21T18:20:20.889Z,11.10
2023-03-21T18:22:48.483Z,11.10
2023-03-21T18:25:16.840Z,11.10
2023-03-21T18:28:06.852Z,11.10
2023-03-21T18:30:53.033Z,11.10
2023-03-21T18:33:17.702Z,11.10
2023-03-21T18:35:45.218Z,11.10
2023-03-21T18:38:11.974Z,11.10
2023-03-21T18:40:40.656Z,11.10
2023-03-21T18:45:54.144Z,11.10
2023-03-21T18:48:21.127Z,11.10
2023-03-21T18:50:47.720Z,11.10
2023-03-21T18:53:14.338Z,11.10
2023-03-21T18:55:46.546Z,11.10
2023-03-21T18:58:14.502Z,11.10
2023-03-21T19:00:42.767Z,11.10
2023-03-21T19:03:24.836Z,11.10
2023-03-21T19:06:01.097Z,11.10
2023-03-21T19:08:28.008Z,11.10
2023-03-21T19:10:54.648Z,11.00
2023-03-21T19:13:21.247Z,11.00
2023-03-21T19:15:49.776Z,11.00
2023-03-21T19:21:05.444Z,11.00
2023-03-21T19:23:50.133Z,10.90
2023-03-21T19:26:19.011Z,10.80
2023-03-21T19:28:45.938Z,10.70
2023-03-21T19:31:13.034Z,10.60
2023-03-21T19:33:39.628Z,10.60
2023-03-21T19:36:17.962Z,10.60
2023-03-21T19:38:48.420Z,10.60
2023-03-21T19:41:15.400Z,10.60
2023-03-21T19:43:52.740Z,10.60
2023-03-21T19:46:22.500Z,10.60
2023-03-21T19:48:50.024Z,10.60
2023-03-21T19:51:32.990Z,10.50
2023-03-21T19:54:03.171Z,10.50
2023-03-21T19:56:31.554Z,10.50
2023-03-21T19:58:58.740Z,10.40
2023-03-21T20:01:26.021Z,10.40
2023-03-21T20:03:52.706Z,10.40
2023-03-21T20:06:19.487Z,10.40
2023-03-21T20:09:33.923Z,10.40
2023-03-21T20:11:33.947Z,10.30
2023-03-21T20:14:02.963Z,10.30
2023-03-21T20:16:34.564Z,10.30
2023-03-21T20:19:01.533Z,10.30
2023-03-21T20:21:34.888Z,10.30
2023-03-21T20:24:07.423Z,10.30
2023-03-21T20:26:34.158Z,10.30
2023-03-21T20:29:37.245Z,10.30
2023-03-21T20:31:47.664Z,10.30
2023-03-21T20:34:14.302Z,10.20
2023-03-21T20:36:43.666Z,10.20
2023-03-21T20:39:11.180Z,10.20
2023-03-21T20:41:38.210Z,10.10
2023-03-21T20:46:51.866Z,10.00
2023-03-21T20:49:20.893Z,9.90
2023-03-21T20:54:35.109Z,9.80
2023-03-21T20:57:02.451Z,9.80
2023-03-21T20:59:29.589Z,9.80
2023-03-21T21:01:57.460Z,9.80
2023-03-21T21:04:44.259Z,9.90
2023-03-21T21:07:15.991Z,10.00
2023-03-21T21:09:46.173Z,10.00
2023-03-21T21:12:14.897Z,10.10
2023-03-21T21:14:42.486Z,10.10
2023-03-21T21:17:46.689Z,10.10
2023-03-21T21:19:56.247Z,10.10
2023-03-21T21:22:22.848Z,10.10
2023-03-21T21:24:49.571Z,10.10
2023-03-21T21:27:16.269Z,10.10
2023-03-21T21:29:43.340Z,10.10
2023-03-21T21:32:11.409Z,10.10
2023-03-21T21:34:38.299Z,10.10
2023-03-21T21:37:05.207Z,10.20
2023-03-21T21:39:35.047Z,10.20
2023-03-21T21:42:02.488Z,10.20
2023-03-21T21:44:29.311Z,10.20
2023-03-21T21:46:57.349Z,10.30
2023-03-21T21:49:24.090Z,10.30
2023-03-21T21:51:50.943Z,10.30
2023-03-21T21:54:18.409Z,10.20
2023-03-21T21:56:48.178Z,10.20
2023-03-21T21:59:21.900Z,10.10
2023-03-21T22:01:51.102Z,10.00
2023-03-21T22:04:18.743Z,10.00
2023-03-21T22:06:47.402Z,10.00
2023-03-21T22:09:15.663Z,10.00
2023-03-21T22:11:42.438Z,10.00
2023-03-21T22:14:09.048Z,10.00
2023-03-21T22:16:35.815Z,10.10
2023-03-21T22:19:02.405Z,10.10
2023-03-21T22:21:29.014Z,10.10
2023-03-21T22:23:55.936Z,10.10
2023-03-21T22:26:22.963Z,10.10
2023-03-21T22:28:49.586Z,10.10
2023-03-21T22:31:17.007Z,10.10
2023-03-21T22:33:44.382Z,10.10
2023-03-21T22:36:11.955Z,10.10
2023-03-21T22:38:38.577Z,10.20
2023-03-21T22:41:06.437Z,10.10
2023-03-21T22:43:34.265Z,10.20
2023-03-21T22:46:05.024Z,10.20
2023-03-21T22:48:32.319Z,10.10
2023-03-21T22:50:59.741Z,10.20
2023-03-21T22:53:26.435Z,10.10
2023-03-21T22:55:53.267Z,10.10
2023-03-21T22:58:20.324Z,10.10
2023-03-21T23:00:47.229Z,10.00
2023-03-21T23:03:14.550Z,9.90
2023-03-21T23:05:42.013Z,9.80
2023-03-21T23:08:08.690Z,9.80
2023-03-21T23:10:43.214Z,9.70
2023-03-21T23:13:10.070Z,9.70
2023-03-21T23:15:38.479Z,9.60
2023-03-21T23:18:05.396Z,9.50
2023-03-21T23:20:31.987Z,9.50
2023-03-21T23:22:58.635Z,9.40
2023-03-21T23:25:25.261Z,9.40
2023-03-21T23:27:51.976Z,9.30
2023-03-21T23:30:18.744Z,9.30
2023-03-21T23:32:45.344Z,9.30
2023-03-21T23:35:11.899Z,9.30
2023-03-21T23:37:42.283Z,9.30
2023-03-21T23:40:10.192Z,9.20
2023-03-21T23:42:36.845Z,9.20
2023-03-21T23:45:04.094Z,9.10
2023-03-21T23:47:30.974Z,9.10
2023-03-21T23:49:57.564Z,9.10
2023-03-21T23:52:24.238Z,9.10
2023-03-21T23:54:51.104Z,9.00
2023-03-21T23:57:18.480Z,9.00
2023-03-21T23:59:46.926Z,9.00
